Sanderson, Texas
Current Conditions -  °F | °C
As of 1:53 AM on Thursday 18 Dec 2014 (Local Time) from KFST Reporting Station
Clear Clear  
Wind Chill: 41°   Ceiling: Unl
Heat Index: 46°   Visibility: 10mi
Dew Point: 29°   Wind: 10mph
Humidity: 51%   Direction: 230°SW
Pressure: 30.09"   Gusts: NA
Location:  30.14°N, 102.4°W
Report Text: KFST 180753Z AUTO 23009KT 10SM CLR 08/M02 A3009 RMK AO2 SLP165 T00781017
Loading
Personal Weather Stations






























Interactive Weather Map New forecast layout! Learn more

10-Day Weather Forecast

Advertisements
Track Severe Weather on mobile